createdAt,value
2018-11-07T00:00:57.303Z,57.47
2018-11-07T00:03:26.132Z,57.30
2018-11-07T00:05:54.837Z,57.70
2018-11-07T00:08:23.548Z,56.80
2018-11-07T00:10:52.248Z,59.00
2018-11-07T00:13:21.078Z,54.53
2018-11-07T00:15:49.854Z,55.40
2018-11-07T00:18:18.746Z,56.10
2018-11-07T00:20:47.493Z,56.10
2018-11-07T00:23:16.176Z,54.37
2018-11-07T00:25:45.093Z,55.27
2018-11-07T00:28:13.746Z,53.77
2018-11-07T00:30:42.400Z,53.40
2018-11-07T00:33:11.019Z,54.43
2018-11-07T00:35:39.577Z,52.13
2018-11-07T00:38:08.549Z,54.20
2018-11-07T00:40:37.161Z,50.83
2018-11-07T00:43:06.133Z,52.53
2018-11-07T00:45:34.681Z,49.93
2018-11-07T00:48:03.285Z,50.77
2018-11-07T00:50:31.850Z,51.43
2018-11-07T00:53:00.438Z,49.97
2018-11-07T00:55:29.078Z,51.97
2018-11-07T00:57:57.696Z,51.80
2018-11-07T01:00:26.261Z,50.97
2018-11-07T01:02:54.942Z,49.57
2018-11-07T01:05:23.529Z,49.20
2018-11-07T01:07:52.184Z,50.03
2018-11-07T01:10:20.799Z,46.83
2018-11-07T01:12:49.401Z,47.23
2018-11-07T01:15:18.000Z,46.53
2018-11-07T01:17:46.619Z,49.30
2018-11-07T01:20:15.396Z,46.07
2018-11-07T01:22:44.445Z,47.07
2018-11-07T01:25:13.141Z,47.23
2018-11-07T01:27:41.732Z,46.33
2018-11-07T01:30:12.254Z,45.50
2018-11-07T01:32:40.945Z,44.93
2018-11-07T01:35:09.692Z,44.73
2018-11-07T01:37:38.388Z,47.53
2018-11-07T01:40:10.890Z,45.67
2018-11-07T01:42:39.507Z,44.43
2018-11-07T01:45:09.184Z,45.60
2018-11-07T01:47:37.792Z,45.67
2018-11-07T01:50:08.047Z,44.43
2018-11-07T01:52:36.621Z,43.57
2018-11-07T01:55:05.481Z,45.80
2018-11-07T01:57:34.161Z,43.50
2018-11-07T02:00:02.715Z,41.90
2018-11-07T02:02:31.366Z,43.67
2018-11-07T02:04:59.968Z,42.97
2018-11-07T02:07:28.528Z,42.23
2018-11-07T02:09:57.190Z,42.33
2018-11-07T02:12:25.912Z,39.20
2018-11-07T02:14:54.512Z,41.20
2018-11-07T02:17:23.098Z,40.10
2018-11-07T02:19:51.738Z,42.10
2018-11-07T02:22:20.349Z,40.37
2018-11-07T02:24:49.005Z,40.03
2018-11-07T02:27:17.582Z,41.43
2018-11-07T02:29:46.174Z,40.00
2018-11-07T02:32:14.777Z,39.13
2018-11-07T02:34:43.370Z,38.30
2018-11-07T02:37:12.012Z,37.10
2018-11-07T02:39:40.583Z,38.00
2018-11-07T02:42:09.220Z,36.97
2018-11-07T02:44:37.804Z,37.70
2018-11-07T02:47:06.547Z,37.40
2018-11-07T02:49:35.122Z,33.77
2018-11-07T02:52:03.768Z,34.70
2018-11-07T02:54:32.391Z,36.70
2018-11-07T02:57:00.987Z,35.03
2018-11-07T02:59:29.583Z,33.07
2018-11-07T03:01:58.228Z,34.27
2018-11-07T03:04:26.853Z,35.23
2018-11-07T03:06:55.472Z,34.60
2018-11-07T03:09:24.129Z,35.07
2018-11-07T03:11:52.733Z,34.83
2018-11-07T03:14:21.343Z,36.63
2018-11-07T03:16:49.982Z,34.87
2018-11-07T03:19:18.607Z,34.67
2018-11-07T03:21:47.195Z,36.97
2018-11-07T03:24:15.844Z,36.70
2018-11-07T03:26:44.464Z,34.97
2018-11-07T03:29:13.072Z,34.13
2018-11-07T03:31:41.671Z,35.07
2018-11-07T03:34:10.278Z,35.73
2018-11-07T03:36:38.841Z,33.70
2018-11-07T03:39:09.733Z,33.77
2018-11-07T03:41:38.771Z,34.27
2018-11-07T03:44:08.393Z,34.33
2018-11-07T03:46:37.042Z,33.37
2018-11-07T03:49:06.513Z,33.57
2018-11-07T03:51:35.110Z,33.87
2018-11-07T03:54:03.769Z,32.37
2018-11-07T03:56:32.372Z,33.20
2018-11-07T03:59:00.952Z,33.27
2018-11-07T04:01:29.571Z,32.20
2018-11-07T04:03:58.212Z,32.37
2018-11-07T04:06:26.833Z,33.03
2018-11-07T04:08:55.486Z,31.70
2018-11-07T04:11:24.099Z,33.77
2018-11-07T04:13:52.689Z,32.23
2018-11-07T04:16:21.313Z,32.00
2018-11-07T04:18:49.927Z,31.87
2018-11-07T04:21:18.519Z,31.33
2018-11-07T04:23:52.466Z,32.40
2018-11-07T04:26:21.100Z,32.73
2018-11-07T04:28:49.704Z,33.40
2018-11-07T04:31:18.318Z,33.27
2018-11-07T04:33:46.889Z,31.97
2018-11-07T04:36:15.583Z,32.90
2018-11-07T04:38:44.191Z,31.00
2018-11-07T04:41:12.760Z,31.67
2018-11-07T04:43:41.361Z,31.87
2018-11-07T04:46:10.037Z,32.40
2018-11-07T04:48:38.601Z,32.77
2018-11-07T04:51:07.652Z,32.30
2018-11-07T04:53:36.715Z,32.73
2018-11-07T04:56:05.446Z,31.50
2018-11-07T04:58:34.440Z,31.87
2018-11-07T05:01:03.082Z,33.03
2018-11-07T05:03:31.707Z,32.87
2018-11-07T05:06:00.374Z,32.77
2018-11-07T05:08:29.060Z,31.53
2018-11-07T05:10:57.638Z,31.40
2018-11-07T05:13:26.271Z,31.50
2018-11-07T05:15:54.902Z,33.60
2018-11-07T05:18:23.487Z,31.20
2018-11-07T05:20:52.110Z,33.40
2018-11-07T05:23:20.708Z,32.30
2018-11-07T05:25:49.292Z,32.67
2018-11-07T05:28:17.901Z,30.57
2018-11-07T05:30:46.576Z,30.37
2018-11-07T05:33:15.170Z,31.50
2018-11-07T05:35:43.793Z,30.57
2018-11-07T05:38:12.416Z,31.37
2018-11-07T05:40:41.010Z,30.80
2018-11-07T05:43:09.595Z,31.97
2018-11-07T05:45:38.310Z,31.23
2018-11-07T05:48:07.223Z,30.87
2018-11-07T05:50:35.870Z,31.87
2018-11-07T05:53:04.545Z,30.80
2018-11-07T05:55:33.198Z,31.93
2018-11-07T05:58:01.945Z,30.83
2018-11-07T06:00:30.593Z,30.17
2018-11-07T06:02:59.240Z,30.67
2018-11-07T06:05:28.012Z,31.47
2018-11-07T06:07:56.698Z,28.73
2018-11-07T06:10:25.406Z,28.83
2018-11-07T06:12:54.186Z,30.93
2018-11-07T06:15:22.950Z,29.63
2018-11-07T06:17:51.796Z,29.33
2018-11-07T06:20:20.415Z,30.23
2018-11-07T06:22:49.155Z,29.80
2018-11-07T06:25:17.774Z,28.67
2018-11-07T06:27:46.438Z,28.73
2018-11-07T06:30:15.180Z,28.87
2018-11-07T06:32:43.985Z,27.93
2018-11-07T06:35:12.604Z,27.10
2018-11-07T06:37:41.315Z,27.83
2018-11-07T06:40:11.289Z,27.00
2018-11-07T06:42:40.003Z,27.97
2018-11-07T06:45:09.391Z,27.90
2018-11-07T06:47:38.092Z,27.47
2018-11-07T06:50:09.653Z,28.13
2018-11-07T06:52:38.284Z,27.80
2018-11-07T06:55:07.447Z,27.77
2018-11-07T06:57:36.102Z,26.40
2018-11-07T07:00:06.320Z,25.73
2018-11-07T07:02:34.905Z,26.87
2018-11-07T07:05:03.499Z,26.17
2018-11-07T07:07:32.150Z,27.40
2018-11-07T07:10:00.760Z,27.53
2018-11-07T07:12:29.468Z,27.73
2018-11-07T07:14:59.430Z,27.73
2018-11-07T07:17:28.076Z,26.53
2018-11-07T07:19:58.113Z,26.77
2018-11-07T07:22:27.998Z,28.47
2018-11-07T07:24:56.603Z,27.27
2018-11-07T07:27:25.232Z,28.83
2018-11-07T07:29:53.859Z,26.00
2018-11-07T07:32:22.493Z,28.47
2018-11-07T07:34:51.186Z,29.67
2018-11-07T07:37:19.844Z,26.50
2018-11-07T07:39:48.474Z,27.20
2018-11-07T07:42:17.117Z,27.10
2018-11-07T07:44:46.626Z,27.53
2018-11-07T07:47:15.226Z,27.47
2018-11-07T07:49:43.863Z,26.17
2018-11-07T07:52:12.652Z,26.17
2018-11-07T07:54:41.276Z,27.53
2018-11-07T07:57:09.933Z,26.27
2018-11-07T07:59:38.530Z,27.97
2018-11-07T08:02:07.133Z,26.07
2018-11-07T08:04:36.290Z,27.93
2018-11-07T08:07:05.663Z,26.57
2018-11-07T08:09:34.250Z,24.97
2018-11-07T08:12:02.876Z,26.70
2018-11-07T08:14:31.516Z,26.10
2018-11-07T08:17:00.128Z,26.23
2018-11-07T08:19:28.766Z,27.23
2018-11-07T08:21:57.390Z,27.30
2018-11-07T08:24:25.994Z,25.10
2018-11-07T08:26:54.655Z,27.47
2018-11-07T08:29:23.248Z,26.50
2018-11-07T08:31:51.896Z,25.90
2018-11-07T08:34:21.713Z,26.77
2018-11-07T08:36:50.319Z,25.50
2018-11-07T08:39:19.426Z,27.07
2018-11-07T08:41:48.088Z,26.97
2018-11-07T08:44:16.646Z,27.50
2018-11-07T08:46:45.236Z,25.70
2018-11-07T08:49:13.864Z,26.43
2018-11-07T08:51:42.437Z,25.37
2018-11-07T08:54:11.177Z,26.40
2018-11-07T08:56:39.808Z,24.97
2018-11-07T08:59:08.390Z,25.33
2018-11-07T09:04:05.665Z,27.30
2018-11-07T09:06:34.274Z,26.20
2018-11-07T09:09:02.895Z,24.67
2018-11-07T09:11:31.537Z,24.67
2018-11-07T09:14:00.173Z,25.97
2018-11-07T09:16:28.809Z,24.43
2018-11-07T09:18:57.467Z,26.80
2018-11-07T09:21:26.070Z,28.10
2018-11-07T09:23:54.715Z,27.37
2018-11-07T09:26:23.351Z,27.57
2018-11-07T09:28:51.947Z,27.70
2018-11-07T09:31:20.595Z,27.77
2018-11-07T09:33:49.245Z,25.52
2018-11-07T09:36:17.887Z,27.15
2018-11-07T09:38:46.496Z,29.27
2018-11-07T09:41:15.195Z,28.97
2018-11-07T09:43:43.832Z,26.75
2018-11-07T09:46:12.449Z,27.42
2018-11-07T09:48:41.129Z,26.45
2018-11-07T09:51:09.723Z,26.87
2018-11-07T09:53:38.370Z,26.73
2018-11-07T09:56:07.154Z,26.87
2018-11-07T09:58:35.803Z,25.62
2018-11-07T10:01:04.562Z,26.25
2018-11-07T10:03:33.212Z,26.77
2018-11-07T10:06:01.846Z,29.90
2018-11-07T10:08:30.467Z,30.75
2018-11-07T10:10:59.096Z,32.38
2018-11-07T10:13:28.251Z,28.52
2018-11-07T10:15:56.854Z,26.57
2018-11-07T10:18:25.497Z,25.92
2018-11-07T10:20:54.085Z,27.50
2018-11-07T10:23:22.649Z,26.25
2018-11-07T10:25:51.299Z,25.43
2018-11-07T10:28:20.119Z,27.52
2018-11-07T10:30:48.551Z,27.80
2018-11-07T10:33:17.170Z,27.67
2018-11-07T10:35:45.815Z,28.02
2018-11-07T10:38:14.437Z,27.32
2018-11-07T10:40:43.044Z,28.65
2018-11-07T10:43:11.632Z,27.58
2018-11-07T10:45:40.231Z,28.60
2018-11-07T10:48:08.839Z,29.15
2018-11-07T10:50:37.439Z,29.30
2018-11-07T10:53:06.070Z,28.52
2018-11-07T10:55:34.678Z,27.85
2018-11-07T10:58:03.402Z,28.32
2018-11-07T11:00:37.472Z,27.25
2018-11-07T11:03:11.599Z,28.55
2018-11-07T11:05:40.341Z,26.52
2018-11-07T11:08:09.305Z,28.57
2018-11-07T11:10:38.218Z,27.42
2018-11-07T11:13:07.158Z,28.55
2018-11-07T11:15:35.749Z,27.13
2018-11-07T11:18:04.344Z,27.90
2018-11-07T11:20:32.982Z,28.20
2018-11-07T11:23:01.593Z,28.17
2018-11-07T11:25:30.192Z,27.50
2018-11-07T11:27:58.788Z,27.98
2018-11-07T11:30:27.347Z,27.90
2018-11-07T11:32:55.972Z,27.77
2018-11-07T11:35:24.697Z,27.73
2018-11-07T11:37:53.214Z,29.20
2018-11-07T11:40:21.784Z,27.93
2018-11-07T11:42:50.414Z,25.65
2018-11-07T11:45:18.997Z,26.95
2018-11-07T11:47:47.669Z,26.87
2018-11-07T11:50:17.430Z,28.10
2018-11-07T11:52:47.018Z,27.37
2018-11-07T11:55:16.374Z,26.45
2018-11-07T11:57:45.561Z,28.15
2018-11-07T12:00:16.279Z,28.83
2018-11-07T12:02:45.396Z,27.95
2018-11-07T12:05:14.848Z,30.00
2018-11-07T12:07:43.497Z,30.08
2018-11-07T12:10:17.524Z,30.08
2018-11-07T12:12:48.482Z,29.10
2018-11-07T12:15:17.999Z,27.65
2018-11-07T12:17:46.670Z,29.15
2018-11-07T12:20:15.254Z,29.98
2018-11-07T12:22:43.904Z,30.65
2018-11-07T12:25:13.522Z,30.30
2018-11-07T12:27:42.495Z,28.30
2018-11-07T12:30:14.183Z,28.87
2018-11-07T12:32:44.007Z,30.23
2018-11-07T12:35:12.726Z,30.25
2018-11-07T12:37:41.675Z,31.25
2018-11-07T12:40:11.047Z,29.72
2018-11-07T12:42:39.727Z,29.00
2018-11-07T12:45:10.853Z,29.50
2018-11-07T12:47:39.602Z,30.68
2018-11-07T12:50:10.720Z,29.05
2018-11-07T12:52:39.147Z,29.95
2018-11-07T12:55:09.513Z,31.10
2018-11-07T12:57:38.355Z,30.52
2018-11-07T13:00:17.138Z,29.70
2018-11-07T13:02:45.862Z,29.30
2018-11-07T13:05:15.540Z,28.67
2018-11-07T13:07:45.051Z,29.12
2018-11-07T13:10:14.973Z,28.98
2018-11-07T13:12:44.367Z,28.23
2018-11-07T13:15:13.722Z,27.58
2018-11-07T13:17:42.364Z,25.68
2018-11-07T13:20:13.396Z,28.80
2018-11-07T13:22:42.672Z,27.82
2018-11-07T13:25:12.076Z,29.70
2018-11-07T13:27:40.677Z,29.92
2018-11-07T13:30:12.806Z,28.67
2018-11-07T13:32:41.736Z,28.30
2018-11-07T13:35:11.217Z,30.25
2018-11-07T13:37:40.652Z,29.12
2018-11-07T13:40:12.127Z,29.00
2018-11-07T13:42:40.779Z,29.98
2018-11-07T13:45:11.415Z,30.57
2018-11-07T13:47:41.058Z,31.15
2018-11-07T13:50:10.216Z,34.60
2018-11-07T13:52:38.870Z,33.38
2018-11-07T13:55:08.646Z,33.02
2018-11-07T13:57:37.408Z,30.72
2018-11-07T14:00:08.536Z,30.88
2018-11-07T14:02:37.319Z,30.70
2018-11-07T14:05:07.265Z,28.95
2018-11-07T14:07:36.113Z,28.60
2018-11-07T14:10:06.116Z,28.40
2018-11-07T14:12:34.700Z,29.67
2018-11-07T14:15:03.349Z,30.35
2018-11-07T14:17:31.961Z,29.40
2018-11-07T14:20:00.568Z,30.35
2018-11-07T14:22:29.297Z,29.65
2018-11-07T14:24:57.907Z,28.55
2018-11-07T14:27:26.537Z,29.17
2018-11-07T14:29:55.641Z,28.05
2018-11-07T14:32:24.233Z,28.15
2018-11-07T14:34:52.847Z,29.10
2018-11-07T14:37:21.463Z,29.47
2018-11-07T14:39:50.090Z,30.00
2018-11-07T14:42:18.703Z,30.02
2018-11-07T14:44:47.344Z,29.30
2018-11-07T14:47:15.987Z,28.77
2018-11-07T14:49:44.554Z,30.37
2018-11-07T14:52:13.234Z,28.77
2018-11-07T14:54:41.977Z,28.80
2018-11-07T14:57:10.573Z,30.80
2018-11-07T14:59:39.223Z,30.13
2018-11-07T15:02:08.052Z,30.07
2018-11-07T15:04:36.884Z,29.05
2018-11-07T15:07:05.683Z,27.87
2018-11-07T15:09:34.292Z,31.27
2018-11-07T15:12:02.940Z,27.63
2018-11-07T15:14:31.611Z,30.20
2018-11-07T15:17:01.080Z,29.40
2018-11-07T15:19:30.272Z,28.47
2018-11-07T15:21:59.473Z,30.60
2018-11-07T15:24:28.576Z,31.60
2018-11-07T15:26:57.513Z,30.07
2018-11-07T15:29:26.967Z,28.97
2018-11-07T15:31:55.894Z,30.23
2018-11-07T15:34:25.214Z,30.23
2018-11-07T15:36:54.389Z,32.40
2018-11-07T15:39:23.403Z,31.07
2018-11-07T15:41:52.325Z,30.80
2018-11-07T15:44:21.586Z,28.20
2018-11-07T15:46:50.634Z,30.13
2018-11-07T15:49:19.942Z,29.37
2018-11-07T15:51:52.884Z,29.63
2018-11-07T15:54:21.700Z,31.77
2018-11-07T15:56:50.335Z,29.70
2018-11-07T15:59:19.014Z,31.77
2018-11-07T16:01:47.710Z,32.83
2018-11-07T16:04:16.406Z,31.17
2018-11-07T16:06:45.457Z,30.33
2018-11-07T16:09:14.093Z,32.63
2018-11-07T16:11:42.697Z,34.23
2018-11-07T16:14:11.355Z,30.77
2018-11-07T16:16:40.057Z,34.20
2018-11-07T16:19:08.679Z,33.17
2018-11-07T16:21:37.317Z,32.83
2018-11-07T16:24:06.550Z,35.07
2018-11-07T16:26:35.125Z,35.37
2018-11-07T16:29:03.803Z,33.77
2018-11-07T16:31:32.430Z,37.53
2018-11-07T16:34:01.075Z,33.90
2018-11-07T16:36:29.716Z,33.43
2018-11-07T16:38:58.294Z,33.73
2018-11-07T16:41:27.051Z,35.77
2018-11-07T16:43:55.600Z,34.87
2018-11-07T16:46:24.318Z,34.97
2018-11-07T16:48:53.099Z,37.90
2018-11-07T16:51:21.783Z,37.40
2018-11-07T16:53:50.796Z,37.07
2018-11-07T16:56:19.495Z,36.37
2018-11-07T16:58:48.181Z,37.63
2018-11-07T17:01:17.002Z,37.53
2018-11-07T17:03:45.616Z,36.80
2018-11-07T17:06:14.294Z,35.63
2018-11-07T17:08:43.014Z,35.23
2018-11-07T17:11:11.637Z,35.43
2018-11-07T17:13:40.266Z,35.80
2018-11-07T17:16:08.928Z,34.83
2018-11-07T17:18:37.536Z,34.70
2018-11-07T17:21:06.206Z,35.20
2018-11-07T17:23:34.831Z,37.10
2018-11-07T17:26:03.476Z,34.10
2018-11-07T17:28:32.117Z,34.43
2018-11-07T17:31:00.744Z,35.57
2018-11-07T17:33:29.352Z,35.20
2018-11-07T17:35:58.058Z,34.70
2018-11-07T17:38:26.781Z,35.33
2018-11-07T17:40:55.376Z,37.50
2018-11-07T17:43:24.108Z,36.90
2018-11-07T17:45:52.890Z,34.53
2018-11-07T17:48:21.823Z,34.77
2018-11-07T17:50:50.474Z,34.77
2018-11-07T17:53:19.089Z,36.27
2018-11-07T17:55:48.195Z,37.83
2018-11-07T17:58:17.487Z,36.67
2018-11-07T18:00:46.227Z,37.63
2018-11-07T18:03:15.029Z,37.80
2018-11-07T18:05:44.659Z,37.33
2018-11-07T18:08:13.586Z,35.10
2018-11-07T18:10:43.758Z,37.37
2018-11-07T18:13:13.021Z,35.33
2018-11-07T18:15:42.763Z,35.77
2018-11-07T18:18:11.434Z,37.30
2018-11-07T18:20:40.027Z,38.83
2018-11-07T18:23:08.771Z,39.57
2018-11-07T18:25:37.447Z,37.40
2018-11-07T18:28:06.276Z,36.73
2018-11-07T18:30:34.961Z,36.07
2018-11-07T18:33:03.657Z,37.90
2018-11-07T18:35:33.043Z,34.20
2018-11-07T18:38:01.685Z,36.33
2018-11-07T18:40:30.798Z,40.50
2018-11-07T18:42:59.785Z,40.87
2018-11-07T18:45:28.603Z,40.53
2018-11-07T18:47:57.398Z,38.57
2018-11-07T18:50:26.392Z,39.50
2018-11-07T18:52:55.302Z,38.60
2018-11-07T18:55:24.577Z,38.67
2018-11-07T18:57:53.549Z,39.33
2018-11-07T19:00:22.319Z,38.53
2018-11-07T19:02:51.477Z,41.57
2018-11-07T19:05:21.216Z,42.00
2018-11-07T19:07:50.146Z,42.73
2018-11-07T19:10:20.318Z,40.23
2018-11-07T19:12:50.585Z,40.57
2018-11-07T19:15:20.098Z,44.53
2018-11-07T19:17:52.915Z,38.80
2018-11-07T19:20:21.900Z,41.70
2018-11-07T19:22:50.683Z,41.00
2018-11-07T19:25:21.875Z,40.17
2018-11-07T19:27:51.000Z,39.63
2018-11-07T19:30:21.225Z,39.67
2018-11-07T19:32:52.473Z,41.20
2018-11-07T19:35:21.780Z,42.07
2018-11-07T19:37:51.058Z,40.90
2018-11-07T19:40:22.910Z,42.67
2018-11-07T19:42:51.505Z,42.47
2018-11-07T19:45:20.990Z,41.57
2018-11-07T19:47:49.911Z,44.00
2018-11-07T19:50:19.458Z,42.53
2018-11-07T19:52:49.049Z,41.63
2018-11-07T19:55:20.283Z,43.13
2018-11-07T19:57:51.648Z,45.40
2018-11-07T20:00:20.269Z,42.37
2018-11-07T20:02:48.981Z,43.17
2018-11-07T20:05:17.583Z,44.37
2018-11-07T20:07:46.236Z,42.67
2018-11-07T20:10:16.349Z,46.17
2018-11-07T20:12:44.946Z,39.30
2018-11-07T20:15:14.815Z,43.27
2018-11-07T20:17:44.085Z,45.93
2018-11-07T20:20:13.240Z,41.80
2018-11-07T20:22:41.950Z,42.30
2018-11-07T20:25:12.041Z,42.63
2018-11-07T20:27:40.873Z,43.20
2018-11-07T20:30:12.582Z,41.30
2018-11-07T20:32:41.520Z,42.83
2018-11-07T20:35:11.668Z,45.03
2018-11-07T20:37:40.306Z,43.13
2018-11-07T20:40:11.501Z,44.47
2018-11-07T20:42:40.219Z,43.30
2018-11-07T20:45:09.712Z,44.33
2018-11-07T20:47:38.721Z,48.23
2018-11-07T20:50:10.367Z,45.17
2018-11-07T20:52:39.334Z,44.60
2018-11-07T20:55:08.311Z,45.93
2018-11-07T20:57:37.325Z,46.27
2018-11-07T21:00:12.490Z,49.70
2018-11-07T21:02:41.648Z,44.40
2018-11-07T21:05:10.744Z,44.63
2018-11-07T21:07:39.829Z,46.10
2018-11-07T21:10:11.468Z,42.40
2018-11-07T21:12:40.728Z,45.23
2018-11-07T21:15:10.209Z,46.10
2018-11-07T21:17:39.529Z,43.73
2018-11-07T21:20:08.489Z,42.23
2018-11-07T21:22:37.129Z,42.27
2018-11-07T21:25:05.859Z,41.20
2018-11-07T21:27:34.576Z,44.27
2018-11-07T21:30:03.736Z,45.97
2018-11-07T21:32:32.380Z,44.83
2018-11-07T21:35:01.061Z,44.63
2018-11-07T21:37:29.762Z,42.57
2018-11-07T21:39:58.511Z,41.80
2018-11-07T21:42:27.221Z,40.90
2018-11-07T21:44:55.870Z,39.80
2018-11-07T21:47:24.506Z,49.37
2018-11-07T21:49:53.154Z,42.10
2018-11-07T21:52:21.863Z,45.40
2018-11-07T21:54:50.538Z,47.30
2018-11-07T21:57:19.248Z,43.37
2018-11-07T21:59:47.921Z,43.67
2018-11-07T22:02:16.621Z,44.27
2018-11-07T22:04:45.348Z,43.80
2018-11-07T22:07:13.998Z,40.87
2018-11-07T22:09:42.627Z,40.63
2018-11-07T22:12:11.302Z,46.97
2018-11-07T22:14:39.904Z,47.27
2018-11-07T22:17:08.520Z,52.57
2018-11-07T22:19:37.328Z,44.23
2018-11-07T22:22:06.070Z,45.33
2018-11-07T22:24:34.686Z,43.67
2018-11-07T22:27:03.290Z,45.90
2018-11-07T22:29:31.915Z,45.67
2018-11-07T22:32:00.546Z,44.77
2018-11-07T22:34:29.194Z,46.00
2018-11-07T22:36:57.904Z,45.03
2018-11-07T22:39:26.526Z,45.17
2018-11-07T22:41:55.160Z,43.67
2018-11-07T22:44:23.827Z,51.30
2018-11-07T22:46:52.452Z,43.27
2018-11-07T22:49:21.146Z,42.80
2018-11-07T22:51:49.775Z,46.20
2018-11-07T22:54:18.393Z,45.57
2018-11-07T22:56:47.133Z,50.80
2018-11-07T22:59:15.812Z,46.60
2018-11-07T23:01:44.456Z,49.33
2018-11-07T23:04:13.183Z,47.97
2018-11-07T23:06:41.836Z,49.93
2018-11-07T23:09:13.838Z,47.77
2018-11-07T23:11:44.568Z,46.77
2018-11-07T23:14:15.228Z,46.07
2018-11-07T23:16:44.621Z,47.90
2018-11-07T23:19:13.492Z,46.57
2018-11-07T23:21:42.316Z,44.47
2018-11-07T23:24:10.998Z,51.83
2018-11-07T23:26:39.619Z,44.13
2018-11-07T23:29:08.303Z,49.07
2018-11-07T23:31:36.900Z,46.40
2018-11-07T23:34:05.692Z,47.57
2018-11-07T23:36:34.531Z,45.50
2018-11-07T23:39:03.547Z,46.77
2018-11-07T23:41:32.146Z,45.00
2018-11-07T23:44:00.825Z,45.43
2018-11-07T23:46:29.530Z,47.47
2018-11-07T23:48:58.140Z,45.80
2018-11-07T23:51:27.598Z,43.20
2018-11-07T23:53:56.370Z,43.23
2018-11-07T23:56:25.002Z,47.07
2018-11-07T23:58:53.702Z,48.53
